sensor_id;sensor_type;location;lat;lon;timestamp;temperature;humidity
58568;DHT22;44354;46.192;-1.076;2023-03-13T00:01:51;12.30;99.90
58568;DHT22;44354;46.192;-1.076;2023-03-13T00:04:23;12.30;99.90
58568;DHT22;44354;46.192;-1.076;2023-03-13T00:06:50;12.20;99.90
58568;DHT22;44354;46.192;-1.076;2023-03-13T00:09:16;12.20;99.90
58568;DHT22;44354;46.192;-1.076;2023-03-13T00:12:01;12.20;99.90
58568;DHT22;44354;46.192;-1.076;2023-03-13T00:14:27;12.20;99.90
58568;DHT22;44354;46.192;-1.076;2023-03-13T00:16:52;12.20;99.90
58568;DHT22;44354;46.192;-1.076;2023-03-13T00:19:18;12.20;99.90
58568;DHT22;44354;46.192;-1.076;2023-03-13T00:21:44;12.20;99.90
58568;DHT22;44354;46.192;-1.076;2023-03-13T00:24:10;12.10;99.90
58568;DHT22;44354;46.192;-1.076;2023-03-13T00:26:42;12.10;99.90
58568;DHT22;44354;46.192;-1.076;2023-03-13T00:29:09;12.10;99.90
58568;DHT22;44354;46.192;-1.076;2023-03-13T00:34:11;12.20;99.90
58568;DHT22;44354;46.192;-1.076;2023-03-13T00:36:39;12.20;99.90
58568;DHT22;44354;46.192;-1.076;2023-03-13T00:39:05;12.10;99.90
58568;DHT22;44354;46.192;-1.076;2023-03-13T00:41:31;12.10;99.90
58568;DHT22;44354;46.192;-1.076;2023-03-13T00:43:57;12.10;99.90
58568;DHT22;44354;46.192;-1.076;2023-03-13T00:46:24;12.10;99.90
58568;DHT22;44354;46.192;-1.076;2023-03-13T00:48:50;12.10;99.90
58568;DHT22;44354;46.192;-1.076;2023-03-13T00:51:16;12.10;99.90
58568;DHT22;44354;46.192;-1.076;2023-03-13T00:53:42;12.20;99.90
58568;DHT22;44354;46.192;-1.076;2023-03-13T00:56:08;12.20;99.90
58568;DHT22;44354;46.192;-1.076;2023-03-13T00:58:35;12.20;99.90
58568;DHT22;44354;46.192;-1.076;2023-03-13T01:01:08;12.20;99.90
58568;DHT22;44354;46.192;-1.076;2023-03-13T01:03:37;12.20;99.90
58568;DHT22;44354;46.192;-1.076;2023-03-13T01:06:04;12.20;99.90
58568;DHT22;44354;46.192;-1.076;2023-03-13T01:08:30;12.20;99.90
58568;DHT22;44354;46.192;-1.076;2023-03-13T01:10:56;12.10;99.90
58568;DHT22;44354;46.192;-1.076;2023-03-13T01:13:23;12.10;99.90
58568;DHT22;44354;46.192;-1.076;2023-03-13T01:16:13;12.10;99.90
58568;DHT22;44354;46.192;-1.076;2023-03-13T01:18:42;12.10;99.90
58568;DHT22;44354;46.192;-1.076;2023-03-13T01:21:08;12.20;99.90
58568;DHT22;44354;46.192;-1.076;2023-03-13T01:23:34;12.10;99.90
58568;DHT22;44354;46.192;-1.076;2023-03-13T01:25:59;12.10;99.90
58568;DHT22;44354;46.192;-1.076;2023-03-13T01:28:26;12.10;99.90
58568;DHT22;44354;46.192;-1.076;2023-03-13T01:30:51;12.00;99.90
58568;DHT22;44354;46.192;-1.076;2023-03-13T01:33:17;12.10;99.90
58568;DHT22;44354;46.192;-1.076;2023-03-13T01:35:43;12.10;99.90
58568;DHT22;44354;46.192;-1.076;2023-03-13T01:38:09;12.00;99.90
58568;DHT22;44354;46.192;-1.076;2023-03-13T01:40:41;12.00;99.90
58568;DHT22;44354;46.192;-1.076;2023-03-13T01:50:58;12.00;99.90
58568;DHT22;44354;46.192;-1.076;2023-03-13T01:53:24;12.00;99.90
58568;DHT22;44354;46.192;-1.076;2023-03-13T01:55:50;12.00;99.90
58568;DHT22;44354;46.192;-1.076;2023-03-13T01:58:17;12.00;99.90
58568;DHT22;44354;46.192;-1.076;2023-03-13T02:00:43;12.00;99.90
58568;DHT22;44354;46.192;-1.076;2023-03-13T02:03:10;11.90;99.90
58568;DHT22;44354;46.192;-1.076;2023-03-13T02:05:38;12.00;99.90
58568;DHT22;44354;46.192;-1.076;2023-03-13T02:08:10;12.00;99.90
58568;DHT22;44354;46.192;-1.076;2023-03-13T02:10:38;12.00;99.90
58568;DHT22;44354;46.192;-1.076;2023-03-13T02:13:06;11.90;99.90
58568;DHT22;44354;46.192;-1.076;2023-03-13T02:15:32;11.90;99.90
58568;DHT22;44354;46.192;-1.076;2023-03-13T02:18:01;11.90;99.90
58568;DHT22;44354;46.192;-1.076;2023-03-13T02:20:27;11.90;99.90
58568;DHT22;44354;46.192;-1.076;2023-03-13T02:30:19;12.00;99.90
58568;DHT22;44354;46.192;-1.076;2023-03-13T02:32:45;12.00;99.90
58568;DHT22;44354;46.192;-1.076;2023-03-13T02:35:12;12.00;99.90
58568;DHT22;44354;46.192;-1.076;2023-03-13T02:37:39;12.00;99.90
58568;DHT22;44354;46.192;-1.076;2023-03-13T02:40:07;12.00;99.90
58568;DHT22;44354;46.192;-1.076;2023-03-13T02:42:35;12.10;99.90
58568;DHT22;44354;46.192;-1.076;2023-03-13T02:45:01;12.10;99.90
58568;DHT22;44354;46.192;-1.076;2023-03-13T02:47:27;12.20;99.90
58568;DHT22;44354;46.192;-1.076;2023-03-13T02:49:52;12.20;99.90
58568;DHT22;44354;46.192;-1.076;2023-03-13T02:54:50;12.30;99.90
58568;DHT22;44354;46.192;-1.076;2023-03-13T02:57:19;12.30;99.90
58568;DHT22;44354;46.192;-1.076;2023-03-13T02:59:47;12.30;99.90
58568;DHT22;44354;46.192;-1.076;2023-03-13T03:02:17;12.30;99.90
58568;DHT22;44354;46.192;-1.076;2023-03-13T03:04:43;12.30;99.90
58568;DHT22;44354;46.192;-1.076;2023-03-13T03:07:10;12.40;99.90
58568;DHT22;44354;46.192;-1.076;2023-03-13T03:10:00;12.40;99.90
58568;DHT22;44354;46.192;-1.076;2023-03-13T03:12:26;12.50;99.90
58568;DHT22;44354;46.192;-1.076;2023-03-13T03:14:59;12.40;99.90
58568;DHT22;44354;46.192;-1.076;2023-03-13T03:17:34;12.50;99.90
58568;DHT22;44354;46.192;-1.076;2023-03-13T03:19:59;12.50;99.90
58568;DHT22;44354;46.192;-1.076;2023-03-13T03:22:26;12.50;99.90
58568;DHT22;44354;46.192;-1.076;2023-03-13T03:24:52;12.50;99.90
58568;DHT22;44354;46.192;-1.076;2023-03-13T03:27:17;12.50;99.90
58568;DHT22;44354;46.192;-1.076;2023-03-13T03:29:43;12.50;99.90
58568;DHT22;44354;46.192;-1.076;2023-03-13T03:32:08;12.50;99.90
58568;DHT22;44354;46.192;-1.076;2023-03-13T03:34:35;12.50;99.90
58568;DHT22;44354;46.192;-1.076;2023-03-13T03:37:00;12.50;99.90
58568;DHT22;44354;46.192;-1.076;2023-03-13T03:39:26;12.50;99.90
58568;DHT22;44354;46.192;-1.076;2023-03-13T03:41:52;12.50;99.90
58568;DHT22;44354;46.192;-1.076;2023-03-13T03:44:19;12.50;99.90
58568;DHT22;44354;46.192;-1.076;2023-03-13T03:46:45;12.50;99.90
58568;DHT22;44354;46.192;-1.076;2023-03-13T03:49:32;12.50;99.90
58568;DHT22;44354;46.192;-1.076;2023-03-13T03:52:01;12.50;99.90
58568;DHT22;44354;46.192;-1.076;2023-03-13T03:59:57;12.60;99.90
58568;DHT22;44354;46.192;-1.076;2023-03-13T04:02:25;12.60;99.90
58568;DHT22;44354;46.192;-1.076;2023-03-13T04:04:50;12.60;99.90
58568;DHT22;44354;46.192;-1.076;2023-03-13T04:07:19;12.60;99.90
58568;DHT22;44354;46.192;-1.076;2023-03-13T04:12:34;12.60;99.90
58568;DHT22;44354;46.192;-1.076;2023-03-13T04:15:22;12.60;99.90
58568;DHT22;44354;46.192;-1.076;2023-03-13T04:17:49;12.70;99.90
58568;DHT22;44354;46.192;-1.076;2023-03-13T04:20:32;12.70;99.90
58568;DHT22;44354;46.192;-1.076;2023-03-13T04:23:01;12.60;99.90
58568;DHT22;44354;46.192;-1.076;2023-03-13T04:25:45;12.60;99.90
58568;DHT22;44354;46.192;-1.076;2023-03-13T04:28:12;12.70;99.90
58568;DHT22;44354;46.192;-1.076;2023-03-13T04:34:08;12.60;99.90
58568;DHT22;44354;46.192;-1.076;2023-03-13T04:36:48;12.60;99.90
58568;DHT22;44354;46.192;-1.076;2023-03-13T04:39:17;12.60;99.90
58568;DHT22;44354;46.192;-1.076;2023-03-13T04:42:14;12.60;99.90
58568;DHT22;44354;46.192;-1.076;2023-03-13T04:50:41;12.60;99.90
58568;DHT22;44354;46.192;-1.076;2023-03-13T04:53:07;12.60;99.90
58568;DHT22;44354;46.192;-1.076;2023-03-13T04:58:35;12.60;99.90
58568;DHT22;44354;46.192;-1.076;2023-03-13T05:01:05;12.70;99.90
58568;DHT22;44354;46.192;-1.076;2023-03-13T05:03:34;12.60;99.90
58568;DHT22;44354;46.192;-1.076;2023-03-13T05:05:59;12.60;99.90
58568;DHT22;44354;46.192;-1.076;2023-03-13T05:08:26;12.70;99.90
58568;DHT22;44354;46.192;-1.076;2023-03-13T05:10:51;12.70;99.90
58568;DHT22;44354;46.192;-1.076;2023-03-13T05:13:44;12.90;99.90
58568;DHT22;44354;46.192;-1.076;2023-03-13T05:16:13;12.90;99.90
58568;DHT22;44354;46.192;-1.076;2023-03-13T05:18:39;12.90;99.90
58568;DHT22;44354;46.192;-1.076;2023-03-13T05:21:17;12.90;99.90
58568;DHT22;44354;46.192;-1.076;2023-03-13T05:23:43;12.90;99.90
58568;DHT22;44354;46.192;-1.076;2023-03-13T05:26:11;12.90;99.90
58568;DHT22;44354;46.192;-1.076;2023-03-13T05:28:42;13.00;99.90
58568;DHT22;44354;46.192;-1.076;2023-03-13T05:31:09;12.90;99.90
58568;DHT22;44354;46.192;-1.076;2023-03-13T05:33:46;13.00;99.90
58568;DHT22;44354;46.192;-1.076;2023-03-13T05:36:11;13.00;99.90
58568;DHT22;44354;46.192;-1.076;2023-03-13T05:38:37;13.00;99.90
58568;DHT22;44354;46.192;-1.076;2023-03-13T05:41:02;13.00;99.90
58568;DHT22;44354;46.192;-1.076;2023-03-13T05:43:28;12.90;99.90
58568;DHT22;44354;46.192;-1.076;2023-03-13T05:45:54;12.90;99.90
58568;DHT22;44354;46.192;-1.076;2023-03-13T05:48:19;12.90;99.90
58568;DHT22;44354;46.192;-1.076;2023-03-13T05:50:45;12.80;99.90
58568;DHT22;44354;46.192;-1.076;2023-03-13T05:53:11;12.80;99.90
58568;DHT22;44354;46.192;-1.076;2023-03-13T05:55:36;12.80;99.90
58568;DHT22;44354;46.192;-1.076;2023-03-13T05:58:02;12.70;99.90
58568;DHT22;44354;46.192;-1.076;2023-03-13T06:00:28;12.60;99.90
58568;DHT22;44354;46.192;-1.076;2023-03-13T06:02:53;12.60;99.90
58568;DHT22;44354;46.192;-1.076;2023-03-13T06:05:19;12.60;99.90
58568;DHT22;44354;46.192;-1.076;2023-03-13T06:07:44;12.60;99.90
58568;DHT22;44354;46.192;-1.076;2023-03-13T06:10:10;12.60;99.90
58568;DHT22;44354;46.192;-1.076;2023-03-13T06:12:38;12.50;99.90
58568;DHT22;44354;46.192;-1.076;2023-03-13T06:15:04;12.50;99.90
58568;DHT22;44354;46.192;-1.076;2023-03-13T06:17:31;12.50;99.90
58568;DHT22;44354;46.192;-1.076;2023-03-13T06:19:58;12.40;99.90
58568;DHT22;44354;46.192;-1.076;2023-03-13T06:22:33;12.40;99.90
58568;DHT22;44354;46.192;-1.076;2023-03-13T06:24:58;12.40;99.90
58568;DHT22;44354;46.192;-1.076;2023-03-13T06:27:35;12.40;99.90
58568;DHT22;44354;46.192;-1.076;2023-03-13T06:30:08;12.50;99.90
58568;DHT22;44354;46.192;-1.076;2023-03-13T06:32:34;12.40;99.90
58568;DHT22;44354;46.192;-1.076;2023-03-13T06:34:59;12.40;99.90
58568;DHT22;44354;46.192;-1.076;2023-03-13T06:37:27;12.40;99.90
58568;DHT22;44354;46.192;-1.076;2023-03-13T06:39:54;12.40;99.90
58568;DHT22;44354;46.192;-1.076;2023-03-13T06:42:19;12.50;99.90
58568;DHT22;44354;46.192;-1.076;2023-03-13T06:44:45;12.50;99.90
58568;DHT22;44354;46.192;-1.076;2023-03-13T06:47:10;12.50;99.90
58568;DHT22;44354;46.192;-1.076;2023-03-13T06:49:37;12.60;99.90
58568;DHT22;44354;46.192;-1.076;2023-03-13T06:52:03;12.60;99.90
58568;DHT22;44354;46.192;-1.076;2023-03-13T06:54:32;12.60;99.90
58568;DHT22;44354;46.192;-1.076;2023-03-13T06:56:57;12.50;99.90
58568;DHT22;44354;46.192;-1.076;2023-03-13T06:59:23;12.60;99.90
58568;DHT22;44354;46.192;-1.076;2023-03-13T07:01:50;12.50;99.90
58568;DHT22;44354;46.192;-1.076;2023-03-13T07:04:16;12.60;99.90
58568;DHT22;44354;46.192;-1.076;2023-03-13T07:06:42;12.60;99.90
58568;DHT22;44354;46.192;-1.076;2023-03-13T07:09:08;12.60;99.90
58568;DHT22;44354;46.192;-1.076;2023-03-13T07:11:34;12.70;99.90
58568;DHT22;44354;46.192;-1.076;2023-03-13T07:14:00;12.70;99.90
58568;DHT22;44354;46.192;-1.076;2023-03-13T07:16:26;12.60;99.90
58568;DHT22;44354;46.192;-1.076;2023-03-13T07:18:51;12.60;99.90
58568;DHT22;44354;46.192;-1.076;2023-03-13T07:21:17;12.70;99.90
58568;DHT22;44354;46.192;-1.076;2023-03-13T07:23:43;12.70;99.90
58568;DHT22;44354;46.192;-1.076;2023-03-13T07:26:13;12.70;99.90
58568;DHT22;44354;46.192;-1.076;2023-03-13T07:28:39;12.80;99.90
58568;DHT22;44354;46.192;-1.076;2023-03-13T07:33:30;12.80;99.90
58568;DHT22;44354;46.192;-1.076;2023-03-13T07:35:56;12.80;99.90
58568;DHT22;44354;46.192;-1.076;2023-03-13T07:38:21;12.90;99.90
58568;DHT22;44354;46.192;-1.076;2023-03-13T07:40:51;12.90;99.90
58568;DHT22;44354;46.192;-1.076;2023-03-13T07:43:17;12.90;99.90
58568;DHT22;44354;46.192;-1.076;2023-03-13T07:46:17;13.00;99.90
58568;DHT22;44354;46.192;-1.076;2023-03-13T07:48:36;13.00;99.90
58568;DHT22;44354;46.192;-1.076;2023-03-13T07:51:02;13.00;99.90
58568;DHT22;44354;46.192;-1.076;2023-03-13T07:53:28;13.10;99.90
58568;DHT22;44354;46.192;-1.076;2023-03-13T07:55:55;13.10;99.90
58568;DHT22;44354;46.192;-1.076;2023-03-13T07:58:21;13.30;99.90
58568;DHT22;44354;46.192;-1.076;2023-03-13T08:00:47;13.30;99.90
58568;DHT22;44354;46.192;-1.076;2023-03-13T08:03:12;13.40;99.90
58568;DHT22;44354;46.192;-1.076;2023-03-13T08:05:38;13.40;99.90
58568;DHT22;44354;46.192;-1.076;2023-03-13T08:08:04;13.40;99.90
58568;DHT22;44354;46.192;-1.076;2023-03-13T08:10:30;13.40;99.90
58568;DHT22;44354;46.192;-1.076;2023-03-13T08:12:55;13.40;99.90
58568;DHT22;44354;46.192;-1.076;2023-03-13T08:15:21;13.30;99.90
58568;DHT22;44354;46.192;-1.076;2023-03-13T08:17:52;13.40;99.90
58568;DHT22;44354;46.192;-1.076;2023-03-13T08:20:18;13.40;99.90
58568;DHT22;44354;46.192;-1.076;2023-03-13T08:22:44;13.40;99.90
58568;DHT22;44354;46.192;-1.076;2023-03-13T08:25:13;13.40;99.90
58568;DHT22;44354;46.192;-1.076;2023-03-13T08:27:39;13.40;99.90
58568;DHT22;44354;46.192;-1.076;2023-03-13T08:30:05;13.40;99.90
58568;DHT22;44354;46.192;-1.076;2023-03-13T08:32:34;13.40;99.90
58568;DHT22;44354;46.192;-1.076;2023-03-13T08:35:00;13.40;99.90
58568;DHT22;44354;46.192;-1.076;2023-03-13T08:37:26;13.40;99.90
58568;DHT22;44354;46.192;-1.076;2023-03-13T08:39:51;13.50;99.90
58568;DHT22;44354;46.192;-1.076;2023-03-13T08:42:20;13.40;99.90
58568;DHT22;44354;46.192;-1.076;2023-03-13T08:44:46;13.40;99.90
58568;DHT22;44354;46.192;-1.076;2023-03-13T08:47:11;13.50;99.90
58568;DHT22;44354;46.192;-1.076;2023-03-13T08:49:37;13.50;99.90
58568;DHT22;44354;46.192;-1.076;2023-03-13T08:52:03;13.50;99.90
58568;DHT22;44354;46.192;-1.076;2023-03-13T08:54:28;13.50;99.90
58568;DHT22;44354;46.192;-1.076;2023-03-13T08:56:57;13.50;99.90
58568;DHT22;44354;46.192;-1.076;2023-03-13T08:59:25;13.50;99.90
58568;DHT22;44354;46.192;-1.076;2023-03-13T09:01:51;13.60;99.90
58568;DHT22;44354;46.192;-1.076;2023-03-13T09:04:19;13.50;99.90
58568;DHT22;44354;46.192;-1.076;2023-03-13T09:06:44;13.50;99.90
58568;DHT22;44354;46.192;-1.076;2023-03-13T09:09:10;13.40;99.90
58568;DHT22;44354;46.192;-1.076;2023-03-13T09:11:37;13.40;99.90
58568;DHT22;44354;46.192;-1.076;2023-03-13T09:14:04;13.40;99.90
58568;DHT22;44354;46.192;-1.076;2023-03-13T09:16:30;13.40;99.90
58568;DHT22;44354;46.192;-1.076;2023-03-13T09:18:56;13.30;99.90
58568;DHT22;44354;46.192;-1.076;2023-03-13T09:21:23;13.30;99.90
58568;DHT22;44354;46.192;-1.076;2023-03-13T09:23:49;13.30;99.90
58568;DHT22;44354;46.192;-1.076;2023-03-13T09:26:15;13.30;99.90
58568;DHT22;44354;46.192;-1.076;2023-03-13T09:28:41;13.30;99.90
58568;DHT22;44354;46.192;-1.076;2023-03-13T09:33:33;13.20;99.90
58568;DHT22;44354;46.192;-1.076;2023-03-13T09:35:59;13.20;99.90
58568;DHT22;44354;46.192;-1.076;2023-03-13T09:38:24;13.20;99.90
58568;DHT22;44354;46.192;-1.076;2023-03-13T09:40:50;13.10;99.90
58568;DHT22;44354;46.192;-1.076;2023-03-13T09:43:20;13.10;99.90
58568;DHT22;44354;46.192;-1.076;2023-03-13T09:45:50;13.00;99.90
58568;DHT22;44354;46.192;-1.076;2023-03-13T09:48:28;13.00;99.90
58568;DHT22;44354;46.192;-1.076;2023-03-13T09:51:06;13.00;99.90
58568;DHT22;44354;46.192;-1.076;2023-03-13T09:53:40;13.00;99.90
58568;DHT22;44354;46.192;-1.076;2023-03-13T09:56:11;13.00;99.90
58568;DHT22;44354;46.192;-1.076;2023-03-13T09:58:43;13.00;99.90
58568;DHT22;44354;46.192;-1.076;2023-03-13T10:01:09;13.00;99.90
58568;DHT22;44354;46.192;-1.076;2023-03-13T10:03:39;13.00;99.90
58568;DHT22;44354;46.192;-1.076;2023-03-13T10:06:13;13.00;99.90
58568;DHT22;44354;46.192;-1.076;2023-03-13T10:08:40;13.00;99.90
58568;DHT22;44354;46.192;-1.076;2023-03-13T10:11:19;13.00;99.90
58568;DHT22;44354;46.192;-1.076;2023-03-13T10:14:05;13.00;99.90
58568;DHT22;44354;46.192;-1.076;2023-03-13T10:18:58;13.10;99.90
58568;DHT22;44354;46.192;-1.076;2023-03-13T10:21:33;13.10;99.90
58568;DHT22;44354;46.192;-1.076;2023-03-13T10:26:31;13.30;99.90
58568;DHT22;44354;46.192;-1.076;2023-03-13T10:29:00;13.30;99.90
58568;DHT22;44354;46.192;-1.076;2023-03-13T10:31:29;13.30;99.90
58568;DHT22;44354;46.192;-1.076;2023-03-13T10:34:08;13.30;99.90
58568;DHT22;44354;46.192;-1.076;2023-03-13T10:36:41;13.40;99.90
58568;DHT22;44354;46.192;-1.076;2023-03-13T10:39:11;13.40;99.90
58568;DHT22;44354;46.192;-1.076;2023-03-13T10:41:38;13.40;99.90
58568;DHT22;44354;46.192;-1.076;2023-03-13T10:44:05;13.50;99.90
58568;DHT22;44354;46.192;-1.076;2023-03-13T10:46:32;13.50;99.90
58568;DHT22;44354;46.192;-1.076;2023-03-13T10:49:01;13.50;99.90
58568;DHT22;44354;46.192;-1.076;2023-03-13T10:51:37;13.50;99.90
58568;DHT22;44354;46.192;-1.076;2023-03-13T10:54:29;13.50;99.90
58568;DHT22;44354;46.192;-1.076;2023-03-13T10:57:37;13.70;99.90
58568;DHT22;44354;46.192;-1.076;2023-03-13T10:59:53;13.80;99.90
58568;DHT22;44354;46.192;-1.076;2023-03-13T11:02:26;14.10;99.90
58568;DHT22;44354;46.192;-1.076;2023-03-13T11:04:52;14.30;99.90
58568;DHT22;44354;46.192;-1.076;2023-03-13T11:07:25;14.40;99.90
58568;DHT22;44354;46.192;-1.076;2023-03-13T11:12:26;14.50;99.90
58568;DHT22;44354;46.192;-1.076;2023-03-13T11:14:56;14.40;99.90
58568;DHT22;44354;46.192;-1.076;2023-03-13T11:17:23;14.50;99.90
58568;DHT22;44354;46.192;-1.076;2023-03-13T11:19:54;14.40;99.90
58568;DHT22;44354;46.192;-1.076;2023-03-13T11:24:54;14.30;99.90
58568;DHT22;44354;46.192;-1.076;2023-03-13T11:30:01;14.30;99.90
58568;DHT22;44354;46.192;-1.076;2023-03-13T11:32:42;14.30;99.90
58568;DHT22;44354;46.192;-1.076;2023-03-13T11:35:55;14.20;99.90
58568;DHT22;44354;46.192;-1.076;2023-03-13T11:38:02;14.00;99.90
58568;DHT22;44354;46.192;-1.076;2023-03-13T11:40:52;13.90;99.90
58568;DHT22;44354;46.192;-1.076;2023-03-13T11:43:43;13.80;99.90
58568;DHT22;44354;46.192;-1.076;2023-03-13T11:49:12;13.80;99.90
58568;DHT22;44354;46.192;-1.076;2023-03-13T11:54:30;13.70;99.90
58568;DHT22;44354;46.192;-1.076;2023-03-13T11:57:13;13.80;99.90
58568;DHT22;44354;46.192;-1.076;2023-03-13T12:02:17;13.70;99.90
58568;DHT22;44354;46.192;-1.076;2023-03-13T12:04:46;13.70;99.90
58568;DHT22;44354;46.192;-1.076;2023-03-13T12:09:49;13.80;99.90
58568;DHT22;44354;46.192;-1.076;2023-03-13T12:12:18;13.80;99.90
58568;DHT22;44354;46.192;-1.076;2023-03-13T12:15:13;13.80;99.90
58568;DHT22;44354;46.192;-1.076;2023-03-13T12:17:50;13.70;99.90
58568;DHT22;44354;46.192;-1.076;2023-03-13T12:22:47;13.70;99.90
58568;DHT22;44354;46.192;-1.076;2023-03-13T12:25:17;13.60;99.90
58568;DHT22;44354;46.192;-1.076;2023-03-13T12:27:46;13.60;99.90
58568;DHT22;44354;46.192;-1.076;2023-03-13T12:30:36;13.60;99.90
58568;DHT22;44354;46.192;-1.076;2023-03-13T12:33:11;13.80;99.90
58568;DHT22;44354;46.192;-1.076;2023-03-13T12:35:41;14.00;99.90
58568;DHT22;44354;46.192;-1.076;2023-03-13T12:38:25;14.30;99.90
58568;DHT22;44354;46.192;-1.076;2023-03-13T12:43:37;14.50;99.90
58568;DHT22;44354;46.192;-1.076;2023-03-13T12:51:33;14.10;99.90
58568;DHT22;44354;46.192;-1.076;2023-03-13T12:59:19;14.10;99.90
58568;DHT22;44354;46.192;-1.076;2023-03-13T13:01:47;14.00;99.90
58568;DHT22;44354;46.192;-1.076;2023-03-13T13:04:15;14.00;99.90
58568;DHT22;44354;46.192;-1.076;2023-03-13T13:06:55;13.90;99.90
58568;DHT22;44354;46.192;-1.076;2023-03-13T13:15:28;13.70;99.90
58568;DHT22;44354;46.192;-1.076;2023-03-13T13:26:56;13.40;99.90
58568;DHT22;44354;46.192;-1.076;2023-03-13T13:32:50;13.40;99.90
58568;DHT22;44354;46.192;-1.076;2023-03-13T13:35:34;13.30;99.90
58568;DHT22;44354;46.192;-1.076;2023-03-13T14:13:02;13.50;99.90
58568;DHT22;44354;46.192;-1.076;2023-03-13T14:15:47;13.60;99.90
58568;DHT22;44354;46.192;-1.076;2023-03-13T14:18:40;13.60;99.90
58568;DHT22;44354;46.192;-1.076;2023-03-13T14:26:43;13.50;99.90
58568;DHT22;44354;46.192;-1.076;2023-03-13T14:36:02;13.50;99.90
58568;DHT22;44354;46.192;-1.076;2023-03-13T14:43:47;13.50;99.90
58568;DHT22;44354;46.192;-1.076;2023-03-13T14:46:35;13.50;99.90
58568;DHT22;44354;46.192;-1.076;2023-03-13T14:50:03;13.40;99.90
58568;DHT22;44354;46.192;-1.076;2023-03-13T14:52:30;13.40;99.90
58568;DHT22;44354;46.192;-1.076;2023-03-13T15:00:56;13.50;99.90
58568;DHT22;44354;46.192;-1.076;2023-03-13T15:06:25;13.30;99.90
58568;DHT22;44354;46.192;-1.076;2023-03-13T15:09:20;13.30;99.90
58568;DHT22;44354;46.192;-1.076;2023-03-13T15:11:53;13.30;99.90
58568;DHT22;44354;46.192;-1.076;2023-03-13T15:14:39;13.20;99.90
58568;DHT22;44354;46.192;-1.076;2023-03-13T15:17:15;13.10;99.90
58568;DHT22;44354;46.192;-1.076;2023-03-13T15:25:27;13.00;99.90
58568;DHT22;44354;46.192;-1.076;2023-03-13T15:27:59;13.10;99.90
58568;DHT22;44354;46.192;-1.076;2023-03-13T15:30:27;13.10;99.90
58568;DHT22;44354;46.192;-1.076;2023-03-13T15:32:53;13.00;99.90
58568;DHT22;44354;46.192;-1.076;2023-03-13T15:37:47;13.00;99.90
58568;DHT22;44354;46.192;-1.076;2023-03-13T15:40:28;12.90;99.90
58568;DHT22;44354;46.192;-1.076;2023-03-13T15:42:55;12.90;99.90
58568;DHT22;44354;46.192;-1.076;2023-03-13T15:45:23;13.00;99.90
58568;DHT22;44354;46.192;-1.076;2023-03-13T15:47:54;13.20;99.90
58568;DHT22;44354;46.192;-1.076;2023-03-13T15:50:19;13.30;99.90
58568;DHT22;44354;46.192;-1.076;2023-03-13T15:52:46;13.30;99.90
58568;DHT22;44354;46.192;-1.076;2023-03-13T15:55:15;13.30;99.90
58568;DHT22;44354;46.192;-1.076;2023-03-13T15:57:51;13.10;99.90
58568;DHT22;44354;46.192;-1.076;2023-03-13T16:00:21;13.10;99.90
58568;DHT22;44354;46.192;-1.076;2023-03-13T16:02:48;13.00;99.90
58568;DHT22;44354;46.192;-1.076;2023-03-13T16:05:35;12.90;99.90
58568;DHT22;44354;46.192;-1.076;2023-03-13T16:08:04;12.90;99.90
58568;DHT22;44354;46.192;-1.076;2023-03-13T16:10:33;12.90;99.90
58568;DHT22;44354;46.192;-1.076;2023-03-13T16:13:05;12.90;99.90
58568;DHT22;44354;46.192;-1.076;2023-03-13T16:18:48;12.80;99.90
58568;DHT22;44354;46.192;-1.076;2023-03-13T16:21:40;12.70;99.90
58568;DHT22;44354;46.192;-1.076;2023-03-13T16:24:18;12.80;99.90
58568;DHT22;44354;46.192;-1.076;2023-03-13T16:26:46;12.80;99.90
58568;DHT22;44354;46.192;-1.076;2023-03-13T16:29:21;12.70;99.90
58568;DHT22;44354;46.192;-1.076;2023-03-13T16:31:51;12.70;99.90
58568;DHT22;44354;46.192;-1.076;2023-03-13T16:34:17;12.70;99.90
58568;DHT22;44354;46.192;-1.076;2023-03-13T16:36:49;12.50;99.90
58568;DHT22;44354;46.192;-1.076;2023-03-13T16:39:46;12.40;99.90
58568;DHT22;44354;46.192;-1.076;2023-03-13T16:42:12;12.40;99.90
58568;DHT22;44354;46.192;-1.076;2023-03-13T16:44:38;12.40;99.90
58568;DHT22;44354;46.192;-1.076;2023-03-13T16:47:21;12.20;99.90
58568;DHT22;44354;46.192;-1.076;2023-03-13T16:49:50;12.20;99.90
58568;DHT22;44354;46.192;-1.076;2023-03-13T17:05:44;12.10;99.90
58568;DHT22;44354;46.192;-1.076;2023-03-13T17:08:11;12.10;99.90
58568;DHT22;44354;46.192;-1.076;2023-03-13T17:10:53;12.10;99.90
58568;DHT22;44354;46.192;-1.076;2023-03-13T17:19:33;12.00;99.90
58568;DHT22;44354;46.192;-1.076;2023-03-13T17:24:40;11.90;99.90
58568;DHT22;44354;46.192;-1.076;2023-03-13T17:29:40;11.80;99.90
58568;DHT22;44354;46.192;-1.076;2023-03-13T17:38:21;11.80;99.90
58568;DHT22;44354;46.192;-1.076;2023-03-13T17:41:13;11.70;99.90
58568;DHT22;44354;46.192;-1.076;2023-03-13T18:01:48;11.40;99.90
58568;DHT22;44354;46.192;-1.076;2023-03-13T18:04:17;11.40;99.90
58568;DHT22;44354;46.192;-1.076;2023-03-13T18:09:38;11.40;99.90
58568;DHT22;44354;46.192;-1.076;2023-03-13T18:12:56;11.40;99.90
58568;DHT22;44354;46.192;-1.076;2023-03-13T18:15:22;11.40;99.90
58568;DHT22;44354;46.192;-1.076;2023-03-13T18:17:49;11.40;99.90
58568;DHT22;44354;46.192;-1.076;2023-03-13T18:20:18;11.40;99.90
58568;DHT22;44354;46.192;-1.076;2023-03-13T18:23:07;11.40;99.90
58568;DHT22;44354;46.192;-1.076;2023-03-13T18:25:33;11.40;99.90
58568;DHT22;44354;46.192;-1.076;2023-03-13T18:27:59;11.40;99.90
58568;DHT22;44354;46.192;-1.076;2023-03-13T18:30:26;11.40;99.90
58568;DHT22;44354;46.192;-1.076;2023-03-13T18:32:55;11.30;99.90
58568;DHT22;44354;46.192;-1.076;2023-03-13T18:35:20;11.30;99.90
58568;DHT22;44354;46.192;-1.076;2023-03-13T18:37:46;11.30;99.90
58568;DHT22;44354;46.192;-1.076;2023-03-13T18:40:19;11.20;99.90
58568;DHT22;44354;46.192;-1.076;2023-03-13T18:42:45;11.30;99.90
58568;DHT22;44354;46.192;-1.076;2023-03-13T18:45:14;11.20;99.90
58568;DHT22;44354;46.192;-1.076;2023-03-13T18:47:40;11.20;99.90
58568;DHT22;44354;46.192;-1.076;2023-03-13T18:50:39;11.20;99.90
58568;DHT22;44354;46.192;-1.076;2023-03-13T18:52:58;11.20;99.90
58568;DHT22;44354;46.192;-1.076;2023-03-13T18:55:25;11.20;99.90
58568;DHT22;44354;46.192;-1.076;2023-03-13T18:57:51;11.20;99.90
58568;DHT22;44354;46.192;-1.076;2023-03-13T19:00:21;11.20;99.90
58568;DHT22;44354;46.192;-1.076;2023-03-13T19:02:48;11.20;99.90
58568;DHT22;44354;46.192;-1.076;2023-03-13T19:05:14;11.20;99.90
58568;DHT22;44354;46.192;-1.076;2023-03-13T19:07:40;11.30;99.90
58568;DHT22;44354;46.192;-1.076;2023-03-13T19:10:15;11.30;99.90
58568;DHT22;44354;46.192;-1.076;2023-03-13T19:12:41;11.30;99.90
58568;DHT22;44354;46.192;-1.076;2023-03-13T19:15:07;11.30;99.90
58568;DHT22;44354;46.192;-1.076;2023-03-13T19:17:36;11.20;99.90
58568;DHT22;44354;46.192;-1.076;2023-03-13T19:23:11;11.20;99.90
58568;DHT22;44354;46.192;-1.076;2023-03-13T19:41:07;10.70;99.90